createdAt,value
2018-09-21T00:01:08.705Z,19.40
2018-09-21T00:05:11.387Z,19.40
2018-09-21T00:09:14.039Z,19.30
2018-09-21T00:13:16.706Z,19.30
2018-09-21T00:17:19.489Z,19.30
2018-09-21T00:21:22.142Z,19.30
2018-09-21T00:25:24.838Z,19.30
2018-09-21T00:29:27.606Z,19.20
2018-09-21T00:33:30.282Z,19.20
2018-09-21T00:37:32.899Z,19.20
2018-09-21T00:41:35.492Z,19.20
2018-09-21T00:45:38.109Z,19.20
2018-09-21T00:49:40.794Z,19.20
2018-09-21T00:53:43.434Z,19.20
2018-09-21T00:57:46.111Z,19.20
2018-09-21T01:01:48.913Z,19.10
2018-09-21T01:05:51.636Z,19.10
2018-09-21T01:09:54.395Z,19.00
2018-09-21T01:13:57.043Z,18.90
2018-09-21T01:17:59.775Z,18.90
2018-09-21T01:22:02.868Z,18.80
2018-09-21T01:26:05.599Z,18.80
2018-09-21T01:30:08.400Z,18.80
2018-09-21T01:34:11.047Z,18.70
2018-09-21T01:38:13.689Z,18.70
2018-09-21T01:42:16.404Z,18.70
2018-09-21T01:46:19.110Z,18.70
2018-09-21T01:50:21.809Z,18.60
2018-09-21T01:54:24.450Z,18.60
2018-09-21T01:58:27.147Z,18.60
2018-09-21T02:02:29.830Z,18.60
2018-09-21T02:06:32.623Z,18.60
2018-09-21T02:10:35.173Z,18.50
2018-09-21T02:14:37.767Z,18.50
2018-09-21T02:18:40.503Z,18.50
2018-09-21T02:22:43.233Z,18.60
2018-09-21T02:26:45.942Z,18.60
2018-09-21T02:30:48.790Z,18.60
2018-09-21T02:34:51.410Z,18.60
2018-09-21T02:38:54.063Z,18.50
2018-09-21T02:42:56.670Z,18.50
2018-09-21T02:46:59.291Z,18.50
2018-09-21T02:51:01.919Z,18.40
2018-09-21T02:55:04.617Z,18.40
2018-09-21T02:59:07.346Z,18.40
2018-09-21T03:03:10.051Z,18.50
2018-09-21T03:07:12.717Z,18.50
2018-09-21T03:11:15.409Z,18.60
2018-09-21T03:15:18.080Z,18.60
2018-09-21T03:19:20.705Z,18.70
2018-09-21T03:23:23.453Z,18.80
2018-09-21T03:27:26.322Z,18.80
2018-09-21T03:31:28.971Z,18.90
2018-09-21T03:35:31.595Z,18.90
2018-09-21T03:39:34.247Z,19.00
2018-09-21T03:43:37.078Z,19.00
2018-09-21T03:47:40.288Z,19.10
2018-09-21T03:51:43.022Z,19.20
2018-09-21T03:55:45.631Z,19.30
2018-09-21T03:59:48.358Z,19.30
2018-09-21T04:03:51.143Z,19.30
2018-09-21T04:07:53.958Z,19.50
2018-09-21T04:11:56.621Z,19.60
2018-09-21T04:15:59.278Z,19.60
2018-09-21T04:20:01.976Z,19.70
2018-09-21T04:24:04.722Z,19.80
2018-09-21T04:28:07.403Z,19.90
2018-09-21T04:32:10.138Z,20.00
2018-09-21T04:36:12.831Z,20.00
2018-09-21T04:40:15.415Z,20.10
2018-09-21T04:44:18.165Z,20.10
2018-09-21T04:48:20.800Z,20.30
2018-09-21T04:52:23.482Z,20.40
2018-09-21T04:56:26.065Z,20.40
2018-09-21T05:00:28.687Z,20.60
2018-09-21T05:04:31.355Z,20.70
2018-09-21T05:08:34.004Z,20.80
2018-09-21T05:12:36.621Z,21.00
2018-09-21T05:16:39.219Z,21.00
2018-09-21T05:20:41.883Z,21.10
2018-09-21T05:24:44.515Z,21.10
2018-09-21T05:28:47.158Z,21.10
2018-09-21T05:32:49.768Z,21.20
2018-09-21T05:36:52.384Z,21.30
2018-09-21T05:40:55.124Z,21.50
2018-09-21T05:44:57.888Z,21.50
2018-09-21T05:49:00.561Z,21.60
2018-09-21T05:53:03.288Z,21.70
2018-09-21T05:57:06.090Z,21.90
2018-09-21T06:01:08.865Z,21.90
2018-09-21T06:05:11.567Z,21.80
2018-09-21T06:09:14.187Z,21.80
2018-09-21T06:13:16.901Z,21.80
2018-09-21T06:17:19.595Z,21.80
2018-09-21T06:21:22.210Z,21.80
2018-09-21T06:25:24.752Z,21.90
2018-09-21T06:29:27.333Z,21.80
2018-09-21T06:33:30.033Z,21.90
2018-09-21T06:37:32.626Z,21.90
2018-09-21T06:41:35.251Z,22.00
2018-09-21T06:45:37.896Z,22.00
2018-09-21T06:49:40.526Z,22.00
2018-09-21T06:53:43.147Z,22.00
2018-09-21T06:57:45.797Z,22.00
2018-09-21T07:01:48.488Z,22.20
2018-09-21T07:05:51.062Z,22.20
2018-09-21T07:09:53.820Z,22.20
2018-09-21T07:13:56.407Z,22.20
2018-09-21T07:17:59.119Z,22.30
2018-09-21T07:22:01.885Z,22.30
2018-09-21T07:26:04.552Z,22.20
2018-09-21T07:30:07.234Z,22.10
2018-09-21T07:34:09.885Z,22.10
2018-09-21T07:38:19.296Z,22.10
2018-09-21T07:42:21.891Z,22.00
2018-09-21T07:46:24.758Z,22.10
2018-09-21T07:50:27.842Z,22.10
2018-09-21T07:54:30.666Z,22.10
2018-09-21T07:58:33.235Z,22.10
2018-09-21T08:02:35.871Z,22.10
2018-09-21T08:06:38.485Z,22.10
2018-09-21T08:10:41.131Z,22.00
2018-09-21T08:14:43.852Z,21.80
2018-09-21T08:18:46.573Z,21.70
2018-09-21T08:22:49.244Z,21.70
2018-09-21T08:26:51.913Z,21.80
2018-09-21T08:30:54.541Z,21.90
2018-09-21T08:34:57.364Z,22.00
2018-09-21T08:38:59.980Z,22.00
2018-09-21T08:43:02.618Z,22.00
2018-09-21T08:47:05.329Z,22.00
2018-09-21T08:51:07.921Z,22.00
2018-09-21T08:55:10.497Z,21.90
2018-09-21T08:59:13.268Z,21.80
2018-09-21T09:03:16.066Z,21.70
2018-09-21T09:07:18.683Z,21.60
2018-09-21T09:11:21.431Z,21.20
2018-09-21T09:15:24.141Z,20.40
2018-09-21T09:19:27.259Z,19.40
2018-09-21T09:23:30.173Z,18.50
2018-09-21T09:27:32.955Z,16.90
2018-09-21T09:31:35.649Z,16.00
2018-09-21T09:35:38.320Z,15.50
2018-09-21T09:39:41.013Z,15.20
2018-09-21T09:43:43.627Z,15.00
2018-09-21T09:47:46.279Z,14.90
2018-09-21T09:51:48.912Z,14.90
2018-09-21T09:55:51.622Z,14.90
2018-09-21T09:59:54.382Z,15.00
2018-09-21T10:03:57.207Z,14.90
2018-09-21T10:07:59.772Z,15.00
2018-09-21T10:12:02.432Z,15.10
2018-09-21T10:16:05.079Z,15.20
2018-09-21T10:20:07.787Z,15.20
2018-09-21T10:24:10.464Z,15.10
2018-09-21T10:28:13.202Z,15.10
2018-09-21T10:32:15.756Z,15.10
2018-09-21T10:36:18.391Z,15.00
2018-09-21T10:40:21.187Z,14.90
2018-09-21T10:44:24.516Z,15.00
2018-09-21T10:48:27.138Z,15.10
2018-09-21T10:52:29.770Z,15.10
2018-09-21T10:56:32.448Z,15.00
2018-09-21T11:00:35.167Z,15.10
2018-09-21T11:04:37.877Z,15.10
2018-09-21T11:08:40.524Z,15.00
2018-09-21T11:12:43.221Z,15.10
2018-09-21T11:16:45.932Z,15.50
2018-09-21T11:20:48.592Z,15.30
2018-09-21T11:24:51.248Z,15.40
2018-09-21T11:28:53.964Z,15.40
2018-09-21T11:32:56.688Z,15.60
2018-09-21T11:36:59.390Z,15.60
2018-09-21T11:41:02.008Z,15.60
2018-09-21T11:45:05.252Z,15.70
2018-09-21T11:49:07.935Z,15.80
2018-09-21T11:53:10.575Z,15.90
2018-09-21T11:57:13.192Z,15.90
2018-09-21T12:01:15.777Z,16.00
2018-09-21T12:05:18.485Z,15.90
2018-09-21T12:09:21.129Z,15.90
2018-09-21T12:13:23.769Z,15.80
2018-09-21T12:17:26.511Z,15.80
2018-09-21T12:21:29.291Z,15.80
2018-09-21T12:25:31.891Z,15.80
2018-09-21T12:29:35.891Z,15.90
2018-09-21T12:33:38.591Z,16.00
2018-09-21T12:37:41.269Z,16.30
2018-09-21T12:41:44.189Z,16.30
2018-09-21T12:45:47.023Z,16.40
2018-09-21T12:49:49.639Z,16.40
2018-09-21T12:53:52.293Z,16.30
2018-09-21T12:57:54.933Z,16.30
2018-09-21T13:01:57.684Z,16.30
2018-09-21T13:06:00.231Z,16.10
2018-09-21T13:10:03.038Z,16.10
2018-09-21T13:14:05.975Z,16.30
2018-09-21T13:18:08.615Z,16.30
2018-09-21T13:22:11.379Z,16.30
2018-09-21T13:26:14.095Z,16.30
2018-09-21T13:30:16.783Z,16.60
2018-09-21T13:34:19.457Z,16.80
2018-09-21T13:38:22.194Z,16.70
2018-09-21T13:42:24.876Z,16.40
2018-09-21T13:46:27.500Z,16.50
2018-09-21T13:50:30.107Z,16.40
2018-09-21T13:54:32.749Z,16.40
2018-09-21T13:58:35.432Z,16.30
2018-09-21T14:02:38.352Z,16.40
2018-09-21T14:06:40.953Z,16.50
2018-09-21T14:10:43.570Z,16.70
2018-09-21T14:14:46.400Z,17.10
2018-09-21T14:18:49.191Z,17.60
2018-09-21T14:22:51.737Z,17.80
2018-09-21T14:26:54.303Z,17.80
2018-09-21T14:30:56.989Z,17.80
2018-09-21T14:34:59.638Z,17.80
2018-09-21T14:39:02.440Z,18.00
2018-09-21T14:43:05.346Z,17.90
2018-09-21T14:47:07.981Z,17.90
2018-09-21T14:51:10.603Z,17.90
2018-09-21T14:55:14.093Z,17.90
2018-09-21T14:59:16.810Z,17.80
2018-09-21T15:03:19.470Z,17.80
2018-09-21T15:07:22.110Z,17.80
2018-09-21T15:11:24.861Z,17.50
2018-09-21T15:15:27.469Z,17.50
2018-09-21T15:19:30.122Z,17.40
2018-09-21T15:23:32.829Z,17.40
2018-09-21T15:27:35.518Z,17.30
2018-09-21T15:31:38.257Z,17.30
2018-09-21T15:35:40.965Z,17.30
2018-09-21T15:39:43.592Z,17.20
2018-09-21T15:43:46.288Z,16.90
2018-09-21T15:47:48.901Z,16.70
2018-09-21T15:51:51.757Z,16.80
2018-09-21T15:55:54.417Z,16.80
2018-09-21T15:59:57.109Z,16.70
2018-09-21T16:03:59.793Z,16.70
2018-09-21T16:08:02.732Z,16.60
2018-09-21T16:12:05.528Z,16.60
2018-09-21T16:16:08.190Z,16.60
2018-09-21T16:20:10.841Z,16.50
2018-09-21T16:24:13.519Z,16.40
2018-09-21T16:28:16.187Z,16.10
2018-09-21T16:32:18.746Z,16.10
2018-09-21T16:36:21.501Z,16.00
2018-09-21T16:40:24.100Z,15.80
2018-09-21T16:44:26.770Z,15.80
2018-09-21T16:48:29.432Z,15.70
2018-09-21T16:52:32.180Z,15.60
2018-09-21T16:56:34.814Z,15.60
2018-09-21T17:00:37.564Z,15.50
2018-09-21T17:04:40.240Z,15.50
2018-09-21T17:08:43.018Z,15.30
2018-09-21T17:12:45.726Z,15.30
2018-09-21T17:16:48.358Z,15.20
2018-09-21T17:20:51.043Z,15.10
2018-09-21T17:24:53.746Z,15.10
2018-09-21T17:28:57.469Z,15.00
2018-09-21T17:33:00.230Z,14.90
2018-09-21T17:37:02.941Z,14.80
2018-09-21T17:41:06.471Z,14.80
2018-09-21T17:45:09.119Z,14.80
2018-09-21T17:49:11.735Z,14.70
2018-09-21T17:53:14.422Z,14.70
2018-09-21T17:57:17.018Z,14.70
2018-09-21T18:01:19.686Z,14.60
2018-09-21T18:05:22.316Z,14.60
2018-09-21T18:09:25.052Z,14.60
2018-09-21T18:13:27.845Z,14.60
2018-09-21T18:17:30.502Z,14.60
2018-09-21T18:21:33.189Z,14.60
2018-09-21T18:25:35.942Z,14.60
2018-09-21T18:29:38.809Z,14.60
2018-09-21T18:33:41.481Z,14.60
2018-09-21T18:37:44.268Z,14.60
2018-09-21T18:41:46.929Z,14.70
2018-09-21T18:45:50.115Z,14.70
2018-09-21T18:49:52.926Z,14.60
2018-09-21T18:53:55.592Z,14.50
2018-09-21T18:57:58.300Z,14.40
2018-09-21T19:02:01.128Z,13.70
2018-09-21T19:06:04.754Z,13.40
2018-09-21T19:10:07.405Z,13.10
2018-09-21T19:14:10.142Z,12.90
2018-09-21T19:18:13.037Z,12.70
2018-09-21T19:22:15.626Z,12.50
2018-09-21T19:26:19.014Z,12.60
2018-09-21T19:30:21.903Z,12.50
2018-09-21T19:34:24.660Z,12.50
2018-09-21T19:38:27.776Z,12.60
2018-09-21T19:42:30.546Z,12.40
2018-09-21T19:46:33.245Z,12.20
2018-09-21T19:50:36.040Z,12.00
2018-09-21T19:54:38.736Z,11.80
2018-09-21T19:58:41.610Z,11.80
2018-09-21T20:02:44.307Z,11.70
2018-09-21T20:06:47.087Z,11.70
2018-09-21T20:10:49.794Z,11.60
2018-09-21T20:14:53.021Z,11.50
2018-09-21T20:18:55.754Z,11.60
2018-09-21T20:22:58.651Z,11.50
2018-09-21T20:27:01.222Z,11.40
2018-09-21T20:31:09.701Z,11.30
2018-09-21T20:35:12.524Z,11.30
2018-09-21T20:39:15.354Z,11.20
2018-09-21T20:43:18.287Z,11.20
2018-09-21T20:47:21.163Z,11.20
2018-09-21T20:51:23.990Z,11.20
2018-09-21T20:55:26.808Z,11.20
2018-09-21T20:59:30.050Z,11.40
2018-09-21T21:03:34.023Z,11.50
2018-09-21T21:07:36.806Z,11.60
2018-09-21T21:11:39.704Z,11.70
2018-09-21T21:15:42.533Z,11.70
2018-09-21T21:19:45.331Z,11.70
2018-09-21T21:23:49.110Z,11.60
2018-09-21T21:27:52.249Z,11.60
2018-09-21T21:31:55.166Z,11.50
2018-09-21T21:35:58.654Z,11.40
2018-09-21T21:40:04.299Z,11.40
2018-09-21T21:44:07.432Z,11.30
2018-09-21T21:48:11.320Z,11.30
2018-09-21T21:52:14.159Z,11.20
2018-09-21T21:56:16.917Z,11.30
2018-09-21T22:00:20.265Z,11.20
2018-09-21T22:04:22.977Z,11.20
2018-09-21T22:08:25.583Z,11.30
2018-09-21T22:13:32.569Z,11.40
2018-09-21T22:17:35.210Z,11.50
2018-09-21T22:21:37.873Z,11.40
2018-09-21T22:25:40.463Z,11.40
2018-09-21T22:29:43.038Z,11.40
2018-09-21T22:33:45.689Z,11.40
2018-09-21T22:37:48.289Z,11.50
2018-09-21T22:41:50.931Z,11.30
2018-09-21T22:45:53.571Z,11.50
2018-09-21T22:49:56.218Z,11.50
2018-09-21T22:53:58.884Z,11.50
2018-09-21T22:58:01.687Z,11.50
2018-09-21T23:02:04.861Z,11.50
2018-09-21T23:06:07.822Z,11.40
2018-09-21T23:10:10.944Z,11.50
2018-09-21T23:14:14.564Z,11.40
2018-09-21T23:18:18.033Z,11.30
2018-09-21T23:22:27.929Z,11.50
2018-09-21T23:26:33.129Z,11.40
2018-09-21T23:30:37.273Z,11.40
2018-09-21T23:34:40.606Z,11.40
2018-09-21T23:38:45.202Z,11.40
2018-09-21T23:42:48.269Z,11.40
2018-09-21T23:46:50.929Z,11.40
2018-09-21T23:50:53.525Z,11.30
2018-09-21T23:54:56.174Z,11.30
2018-09-21T23:58:58.837Z,11.40
